OIMC  Sarakhs  Airport

Sarakhs, Iran

Add Bookmark
ICAO OIMC
IATA CKT
Type Airport
Status Operational
Latitude
36° 30' 4" N
36.501202
Longitude
61° 3' 53" E
61.064899
Local (GMT +4.5 ) UTC
Jul 24, 2016 09:00 pm Jul 24, 2016 16:30
Sunrise-Sunset Local UTC
Begin Civil Twilight 04:55 am 00:25
Sunrise 05:24 am 00:54
Sunset 07:39 pm 15:09
End Civil Twilight 08:08 pm 15:38
VFR
VFR
MVFR
MVFR
IFR
IFR
LIFR
LIFR
Unknown
Unavailable

Current Weather

METAR Observed VFR
OIMC 141700Z 33010KT CAVOK 29/14 Q1013 Thu, Jul 14, 2016 @ 17:00 UTC
(1 Week, 2 Days, 23 Hours, 30 Minutes ago)
Visual Flight Rules
Wind Visibility Conditions
330° at 10 knots (19 kph) 10 km or more
  • No significant weather
Temperatures Readings Precipitation
Current Temp
29°C
84°F
Dewpoint
14°C
57°F
Heat Index
28°C
83°
Humidity 40%
Altimeter 29.91" Hg
Sea Level Pressure 1,013 mb
Field Elevation
288 m
945 ft
None Recorded
-
-

CheckWX.com is intended as a tool to help pilots better visualize weather data. It is not intended as a substitute for an official weather briefing obtained from a Flight Service Station. CheckWX.com does not meet the FAA requirements for an official pre-flight weather briefing. Therefore, it's important that pilots still call and obtain an official FSS pre-flight weather briefing.

© 2007-2016 CheckWX.com
16:30:42 UTC